createdAt,value
2018-11-26T00:00:08.281Z,30.90
2018-11-26T00:02:37.385Z,35.17
2018-11-26T00:05:06.875Z,31.83
2018-11-26T00:07:38.284Z,29.40
2018-11-26T00:10:19.254Z,36.40
2018-11-26T00:12:49.065Z,34.73
2018-11-26T00:15:18.193Z,30.83
2018-11-26T00:17:47.354Z,34.30
2018-11-26T00:20:18.003Z,33.03
2018-11-26T00:22:47.508Z,33.87
2018-11-26T00:25:16.971Z,34.40
2018-11-26T00:27:47.274Z,32.40
2018-11-26T00:30:17.202Z,31.80
2018-11-26T00:32:50.362Z,31.93
2018-11-26T00:35:20.212Z,32.77
2018-11-26T00:37:52.615Z,32.83
2018-11-26T00:40:22.605Z,35.67
2018-11-26T00:42:55.533Z,32.57
2018-11-26T00:45:24.585Z,31.80
2018-11-26T00:48:02.147Z,33.13
2018-11-26T00:50:31.380Z,30.23
2018-11-26T00:53:01.465Z,35.83
2018-11-26T00:55:30.793Z,32.67
2018-11-26T00:58:04.539Z,31.97
2018-11-26T01:00:33.521Z,31.70
2018-11-26T01:03:07.478Z,32.97
2018-11-26T01:05:38.030Z,36.97
2018-11-26T01:08:11.009Z,33.40
2018-11-26T01:10:40.538Z,36.70
2018-11-26T01:13:13.143Z,36.60
2018-11-26T01:15:42.266Z,34.23
2018-11-26T01:18:19.311Z,33.53
2018-11-26T01:20:48.340Z,36.37
2018-11-26T01:23:18.241Z,37.17
2018-11-26T01:25:48.329Z,36.27
2018-11-26T01:28:20.563Z,34.10
2018-11-26T01:30:49.608Z,39.23
2018-11-26T01:33:24.226Z,34.10
2018-11-26T01:35:53.800Z,35.43
2018-11-26T01:38:24.503Z,37.33
2018-11-26T01:40:54.005Z,36.57
2018-11-26T01:43:27.177Z,36.83
2018-11-26T01:45:56.331Z,39.07
2018-11-26T01:48:30.062Z,37.30
2018-11-26T01:50:59.255Z,38.10
2018-11-26T01:53:32.760Z,37.17
2018-11-26T01:56:05.029Z,35.67
2018-11-26T01:58:34.752Z,38.93
2018-11-26T02:01:03.947Z,36.03
2018-11-26T02:03:37.670Z,33.20
2018-11-26T02:06:06.845Z,41.00
2018-11-26T02:08:38.884Z,34.77
2018-11-26T02:11:08.656Z,40.17
2018-11-26T02:13:41.872Z,35.27
2018-11-26T02:16:10.834Z,31.90
2018-11-26T02:18:45.317Z,33.63
2018-11-26T02:21:14.527Z,30.40
2018-11-26T02:23:47.828Z,32.50
2018-11-26T02:26:23.671Z,32.43
2018-11-26T02:28:52.975Z,33.07
2018-11-26T02:31:22.907Z,34.13
2018-11-26T02:33:53.728Z,31.07
2018-11-26T02:36:23.458Z,33.37
2018-11-26T02:38:56.039Z,30.27
2018-11-26T02:41:25.536Z,30.23
2018-11-26T02:43:58.426Z,31.73
2018-11-26T02:46:28.053Z,33.40
2018-11-26T02:49:05.402Z,31.30
2018-11-26T02:51:35.087Z,33.60
2018-11-26T02:54:04.269Z,28.63
2018-11-26T02:56:34.186Z,32.17
2018-11-26T02:59:07.539Z,31.70
2018-11-26T03:01:36.634Z,29.83
2018-11-26T03:04:13.259Z,29.30
2018-11-26T03:06:42.916Z,32.03
2018-11-26T03:09:12.862Z,30.77
2018-11-26T03:11:42.432Z,33.17
2018-11-26T03:14:15.597Z,25.40
2018-11-26T03:16:45.049Z,30.20
2018-11-26T03:19:17.602Z,28.20
2018-11-26T03:21:46.659Z,27.50
2018-11-26T03:24:20.275Z,26.73
2018-11-26T03:26:49.877Z,29.50
2018-11-26T03:29:22.159Z,30.87
2018-11-26T03:31:51.750Z,26.57
2018-11-26T03:34:24.498Z,28.80
2018-11-26T03:36:53.868Z,26.90
2018-11-26T03:39:27.037Z,29.70
2018-11-26T03:41:56.841Z,27.83
2018-11-26T03:44:29.357Z,29.90
2018-11-26T03:46:58.830Z,30.97
2018-11-26T03:49:32.840Z,27.70
2018-11-26T03:52:02.597Z,32.50
2018-11-26T03:54:35.639Z,29.63
2018-11-26T03:57:05.553Z,25.53
2018-11-26T03:59:37.672Z,30.23
2018-11-26T04:02:06.753Z,27.70
2018-11-26T04:04:40.122Z,26.37
2018-11-26T04:07:09.135Z,25.10
2018-11-26T04:09:42.545Z,23.67
2018-11-26T04:12:11.536Z,28.63
2018-11-26T04:14:44.418Z,26.30
2018-11-26T04:17:14.001Z,26.77
2018-11-26T04:19:46.852Z,28.30
2018-11-26T04:22:15.837Z,25.57
2018-11-26T04:24:50.086Z,27.63
2018-11-26T04:27:19.058Z,27.13
2018-11-26T04:29:52.945Z,26.93
2018-11-26T04:32:22.317Z,29.60
2018-11-26T04:34:59.030Z,29.53
2018-11-26T04:37:27.989Z,23.37
2018-11-26T04:39:59.055Z,26.00
2018-11-26T04:42:28.340Z,25.30
2018-11-26T04:45:05.342Z,26.20
2018-11-26T04:47:34.309Z,27.80
2018-11-26T04:50:04.206Z,23.77
2018-11-26T04:52:33.280Z,25.40
2018-11-26T04:55:07.197Z,26.33
2018-11-26T04:57:42.085Z,26.37
2018-11-26T05:00:13.421Z,28.13
2018-11-26T05:02:44.029Z,23.97
2018-11-26T05:05:14.163Z,28.20
2018-11-26T05:07:43.664Z,28.03
2018-11-26T05:10:15.568Z,24.97
2018-11-26T05:12:44.632Z,30.53
2018-11-26T05:15:17.543Z,25.47
2018-11-26T05:17:46.925Z,25.97
2018-11-26T05:20:23.901Z,28.10
2018-11-26T05:22:52.962Z,28.10
2018-11-26T05:25:22.362Z,27.33
2018-11-26T05:27:51.481Z,28.77
2018-11-26T05:30:28.621Z,30.20
2018-11-26T05:32:57.832Z,29.13
2018-11-26T05:35:27.173Z,30.83
2018-11-26T05:37:56.218Z,30.40
2018-11-26T05:40:32.703Z,32.57
2018-11-26T05:43:01.711Z,30.90
2018-11-26T05:45:34.286Z,32.50
2018-11-26T05:48:03.908Z,34.10
2018-11-26T05:50:36.298Z,29.80
2018-11-26T05:53:05.375Z,32.30
2018-11-26T05:55:37.825Z,32.43
2018-11-26T05:58:07.684Z,36.63
2018-11-26T06:00:40.676Z,41.33
2018-11-26T06:03:10.092Z,37.23
2018-11-26T06:05:43.139Z,38.77
2018-11-26T06:08:12.137Z,36.00
2018-11-26T06:10:45.310Z,39.03
2018-11-26T06:13:14.345Z,38.80
2018-11-26T06:15:48.152Z,37.40
2018-11-26T06:18:17.855Z,38.63
2018-11-26T06:20:51.701Z,38.63
2018-11-26T06:23:20.705Z,42.67
2018-11-26T06:25:53.968Z,37.00
2018-11-26T06:28:22.957Z,37.17
2018-11-26T06:30:56.156Z,38.90
2018-11-26T06:33:25.632Z,38.20
2018-11-26T06:35:59.316Z,41.00
2018-11-26T06:38:28.304Z,39.93
2018-11-26T06:41:04.981Z,41.70
2018-11-26T06:43:34.506Z,35.80
2018-11-26T06:46:08.059Z,36.33
2018-11-26T06:48:37.527Z,40.23
2018-11-26T06:51:09.787Z,40.67
2018-11-26T06:53:38.793Z,40.23
2018-11-26T06:56:14.910Z,39.00
2018-11-26T06:58:44.635Z,39.37
2018-11-26T07:01:14.254Z,40.47
2018-11-26T07:03:43.262Z,41.30
2018-11-26T07:06:16.182Z,42.13
2018-11-26T07:08:45.221Z,42.27
2018-11-26T07:11:19.020Z,43.03
2018-11-26T07:13:48.581Z,46.67
2018-11-26T07:16:21.182Z,41.27
2018-11-26T07:18:50.744Z,45.90
2018-11-26T07:21:24.051Z,40.70
2018-11-26T07:23:54.053Z,43.83
2018-11-26T07:26:25.117Z,43.13
2018-11-26T07:28:54.406Z,40.73
2018-11-26T07:31:31.514Z,42.70
2018-11-26T07:34:00.798Z,40.70
2018-11-26T07:36:31.743Z,41.87
2018-11-26T07:39:00.901Z,42.40
2018-11-26T07:41:32.874Z,40.70
2018-11-26T07:44:01.933Z,38.43
2018-11-26T07:46:38.359Z,42.73
2018-11-26T07:49:08.745Z,43.27
2018-11-26T07:51:38.088Z,41.70
2018-11-26T07:54:07.529Z,39.93
2018-11-26T07:56:44.105Z,43.57
2018-11-26T07:59:13.254Z,40.87
2018-11-26T08:01:45.426Z,41.97
2018-11-26T08:04:15.023Z,41.07
2018-11-26T08:06:45.739Z,40.97
2018-11-26T08:09:15.192Z,40.03
2018-11-26T08:11:53.253Z,36.87
2018-11-26T08:14:22.965Z,40.60
2018-11-26T08:16:52.661Z,42.30
2018-11-26T08:19:21.801Z,42.47
2018-11-26T08:21:54.481Z,39.20
2018-11-26T08:24:23.482Z,38.00
2018-11-26T08:27:02.459Z,39.03
2018-11-26T08:29:31.918Z,39.00
2018-11-26T08:32:01.022Z,36.90
2018-11-26T08:34:30.268Z,42.40
2018-11-26T08:37:25.612Z,38.13
2018-11-26T08:42:35.804Z,43.67
2018-11-26T08:45:23.426Z,44.70
2018-11-26T08:48:07.808Z,43.63
2018-11-26T08:50:43.453Z,46.67
2018-11-26T08:53:13.029Z,48.23
2018-11-26T08:55:42.167Z,40.73
2018-11-26T08:58:14.830Z,42.70
2018-11-26T09:00:44.498Z,39.00
2018-11-26T09:03:21.545Z,42.40
2018-11-26T09:06:00.209Z,42.47
2018-11-26T09:08:31.412Z,42.63
2018-11-26T09:11:06.636Z,38.43
2018-11-26T09:13:36.068Z,44.25
2018-11-26T09:16:05.259Z,40.07
2018-11-26T09:18:34.752Z,40.10
2018-11-26T09:21:04.950Z,43.03
2018-11-26T09:23:34.936Z,44.13
2018-11-26T09:26:04.503Z,42.27
2018-11-26T09:28:33.712Z,41.80
2018-11-26T09:31:07.802Z,40.63
2018-11-26T09:33:38.213Z,43.47
2018-11-26T09:36:07.516Z,40.73
2018-11-26T09:38:36.980Z,44.83
2018-11-26T09:41:07.245Z,43.40
2018-11-26T09:43:39.557Z,42.63
2018-11-26T09:46:09.104Z,42.97
2018-11-26T09:48:43.572Z,40.80
2018-11-26T09:51:14.289Z,44.30
2018-11-26T09:53:43.838Z,44.10
2018-11-26T09:56:14.029Z,48.30
2018-11-26T09:58:44.946Z,43.50
2018-11-26T10:01:14.134Z,40.43
2018-11-26T10:03:48.378Z,45.67
2018-11-26T10:06:19.120Z,40.87
2018-11-26T10:08:52.901Z,42.70
2018-11-26T10:11:22.995Z,40.93
2018-11-26T10:13:54.436Z,43.47
2018-11-26T10:16:24.018Z,40.60
2018-11-26T10:18:56.962Z,39.83
2018-11-26T10:21:26.104Z,43.47
2018-11-26T10:24:04.089Z,41.27
2018-11-26T10:26:33.541Z,38.97
2018-11-26T10:29:02.942Z,42.43
2018-11-26T10:31:34.829Z,41.37
2018-11-26T10:34:08.460Z,40.60
2018-11-26T10:36:37.638Z,36.67
2018-11-26T10:39:09.845Z,43.83
2018-11-26T10:41:39.638Z,41.53
2018-11-26T10:44:14.172Z,41.57
2018-11-26T10:46:43.824Z,41.23
2018-11-26T10:49:14.338Z,36.87
2018-11-26T10:51:43.697Z,36.23
2018-11-26T10:54:18.025Z,36.03
2018-11-26T10:56:47.481Z,35.00
2018-11-26T10:59:24.469Z,39.80
2018-11-26T11:01:58.922Z,34.27
2018-11-26T11:04:29.052Z,38.30
2018-11-26T11:07:00.882Z,36.60
2018-11-26T11:09:30.494Z,37.20
2018-11-26T11:11:59.972Z,37.83
2018-11-26T11:14:29.420Z,38.57
2018-11-26T11:16:58.571Z,35.53
2018-11-26T11:19:28.151Z,36.27
2018-11-26T11:21:58.813Z,44.27
2018-11-26T11:24:32.347Z,35.27
2018-11-26T11:27:01.868Z,36.97
2018-11-26T11:29:34.882Z,40.00
2018-11-26T11:32:05.076Z,40.07
2018-11-26T11:34:38.415Z,36.33
2018-11-26T11:37:08.082Z,39.80
2018-11-26T11:39:37.976Z,36.83
2018-11-26T11:42:07.788Z,38.27
2018-11-26T11:44:44.921Z,35.13
2018-11-26T11:47:15.407Z,38.13
2018-11-26T11:49:45.751Z,33.47
2018-11-26T11:52:14.916Z,35.23
2018-11-26T11:54:47.817Z,38.70
2018-11-26T11:57:17.979Z,40.57
2018-11-26T11:59:48.798Z,36.93
2018-11-26T12:02:18.271Z,38.23
2018-11-26T12:04:51.906Z,39.77
2018-11-26T12:07:21.955Z,43.93
2018-11-26T12:09:53.793Z,38.40
2018-11-26T12:12:27.149Z,37.90
2018-11-26T12:14:56.421Z,38.73
2018-11-26T12:17:26.435Z,38.27
2018-11-26T12:19:59.564Z,37.77
2018-11-26T12:22:29.494Z,40.97
2018-11-26T12:25:03.042Z,39.93
2018-11-26T12:27:32.098Z,40.80
2018-11-26T12:30:24.123Z,38.07
2018-11-26T12:32:54.850Z,36.63
2018-11-26T12:35:24.250Z,39.80
2018-11-26T12:37:53.753Z,39.53
2018-11-26T12:40:25.444Z,39.40
2018-11-26T12:43:00.043Z,39.57
2018-11-26T12:45:31.997Z,38.73
2018-11-26T12:48:01.512Z,39.90
2018-11-26T12:50:31.800Z,38.77
2018-11-26T12:53:04.112Z,38.77
2018-11-26T12:55:34.895Z,40.33
2018-11-26T12:58:04.867Z,45.63
2018-11-26T13:00:38.501Z,44.70
2018-11-26T13:03:13.091Z,40.50
2018-11-26T13:05:42.578Z,39.80
2018-11-26T13:08:11.744Z,37.40
2018-11-26T13:10:42.028Z,41.03
2018-11-26T13:13:12.904Z,43.33
2018-11-26T13:15:42.948Z,39.23
2018-11-26T13:18:14.442Z,41.07
2018-11-26T13:20:45.478Z,39.67
2018-11-26T13:23:14.620Z,43.63
2018-11-26T13:25:45.451Z,37.20
2018-11-26T13:28:14.931Z,42.87
2018-11-26T13:30:47.306Z,44.43
2018-11-26T13:33:17.624Z,45.53
2018-11-26T13:35:48.503Z,42.17
2018-11-26T13:38:18.433Z,43.63
2018-11-26T13:40:47.624Z,45.63
2018-11-26T13:43:17.986Z,40.17
2018-11-26T13:45:49.051Z,37.90
2018-11-26T13:48:19.093Z,38.10
2018-11-26T13:50:55.595Z,38.97
2018-11-26T13:53:26.529Z,37.93
2018-11-26T13:56:58.406Z,41.67
2018-11-26T13:59:27.913Z,38.70
2018-11-26T14:01:57.991Z,36.40
2018-11-26T14:04:28.063Z,40.73
2018-11-26T14:06:58.081Z,37.90
2018-11-26T14:09:28.346Z,41.40
2018-11-26T14:11:59.838Z,35.50
2018-11-26T14:14:29.040Z,39.57
2018-11-26T14:17:06.221Z,37.67
2018-11-26T14:19:35.798Z,39.80
2018-11-26T14:22:08.616Z,38.43
2018-11-26T14:24:38.045Z,39.00
2018-11-26T14:27:10.327Z,34.43
2018-11-26T14:29:40.597Z,38.77
2018-11-26T14:32:13.250Z,42.10
2018-11-26T14:34:42.683Z,35.53
2018-11-26T14:37:16.106Z,35.03
2018-11-26T14:39:46.475Z,31.90
2018-11-26T14:42:18.727Z,35.60
2018-11-26T14:44:47.736Z,34.53
2018-11-26T14:47:21.012Z,35.73
2018-11-26T14:49:50.517Z,37.03
2018-11-26T14:52:22.192Z,36.80
2018-11-26T14:54:51.761Z,39.50
2018-11-26T14:57:24.641Z,39.80
2018-11-26T14:59:54.118Z,36.23
2018-11-26T15:02:31.090Z,34.30
2018-11-26T15:05:00.469Z,30.37
2018-11-26T15:07:35.580Z,33.70
2018-11-26T15:10:05.728Z,30.47
2018-11-26T15:12:36.061Z,31.87
2018-11-26T15:15:07.217Z,31.17
2018-11-26T15:17:37.470Z,30.87
2018-11-26T15:20:13.515Z,34.17
2018-11-26T15:22:43.205Z,33.80
2018-11-26T15:25:15.966Z,34.23
2018-11-26T15:27:46.173Z,30.43
2018-11-26T15:30:18.311Z,34.70
2018-11-26T15:32:48.288Z,34.60
2018-11-26T15:35:18.832Z,30.87
2018-11-26T15:37:50.532Z,32.57
2018-11-26T15:40:23.188Z,30.33
2018-11-26T15:42:52.653Z,30.57
2018-11-26T15:45:28.007Z,34.27
2018-11-26T15:47:58.790Z,30.77
2018-11-26T15:50:29.314Z,31.37
2018-11-26T15:53:01.734Z,36.60
2018-11-26T15:55:31.650Z,31.47
2018-11-26T15:58:01.727Z,31.30
2018-11-26T16:00:31.224Z,31.23
2018-11-26T16:03:02.552Z,31.67
2018-11-26T16:05:33.299Z,29.77
2018-11-26T16:08:11.426Z,31.53
2018-11-26T16:10:41.872Z,34.63
2018-11-26T16:13:12.539Z,35.47
2018-11-26T16:15:44.793Z,35.23
2018-11-26T16:18:36.675Z,33.57
2018-11-26T16:21:10.532Z,35.53
2018-11-26T16:23:40.517Z,33.83
2018-11-26T16:26:18.037Z,30.33
2018-11-26T16:28:47.986Z,33.50
2018-11-26T16:31:18.085Z,30.00
2018-11-26T16:33:47.586Z,30.57
2018-11-26T16:36:17.536Z,34.23
2018-11-26T16:38:48.152Z,33.17
2018-11-26T16:41:25.843Z,36.13
2018-11-26T16:43:56.701Z,29.97
2018-11-26T16:46:26.815Z,32.73
2018-11-26T16:48:57.381Z,33.00
2018-11-26T16:51:29.814Z,33.93
2018-11-26T16:54:01.642Z,34.50
2018-11-26T16:56:31.638Z,29.73
2018-11-26T16:59:01.106Z,31.93
2018-11-26T17:01:31.599Z,33.57
2018-11-26T17:04:01.910Z,32.17
2018-11-26T17:06:31.415Z,34.13
2018-11-26T17:09:00.579Z,33.83
2018-11-26T17:11:35.887Z,30.17
2018-11-26T17:14:07.691Z,32.00
2018-11-26T17:16:38.294Z,31.03
2018-11-26T17:19:07.895Z,32.27
2018-11-26T17:21:38.873Z,33.23
2018-11-26T17:24:09.024Z,33.57
2018-11-26T17:26:41.912Z,36.03
2018-11-26T17:29:13.339Z,38.97
2018-11-26T17:31:43.729Z,36.67
2018-11-26T17:34:16.637Z,35.50
2018-11-26T17:36:48.774Z,36.33
2018-11-26T17:39:18.556Z,36.23
2018-11-26T17:42:00.632Z,36.90
2018-11-26T17:44:31.049Z,38.27
2018-11-26T17:47:01.337Z,37.13
2018-11-26T17:49:34.032Z,37.03
2018-11-26T17:52:03.840Z,34.53
2018-11-26T17:54:34.262Z,38.30
2018-11-26T17:57:04.017Z,35.40
2018-11-26T17:59:34.460Z,33.13
2018-11-26T18:02:07.643Z,37.27
2018-11-26T18:04:38.756Z,32.20
2018-11-26T18:07:10.949Z,37.10
2018-11-26T18:09:40.612Z,37.07
2018-11-26T18:12:16.053Z,34.23
2018-11-26T18:14:45.630Z,35.50
2018-11-26T18:17:15.421Z,35.30
2018-11-26T18:19:44.862Z,39.20
2018-11-26T18:22:15.391Z,36.03
2018-11-26T18:24:46.570Z,36.23
2018-11-26T18:27:16.019Z,35.10
2018-11-26T18:29:45.422Z,32.67
2018-11-26T18:32:18.690Z,37.93
2018-11-26T18:34:47.869Z,34.87
2018-11-26T18:37:21.471Z,36.23
2018-11-26T18:39:53.473Z,32.40
2018-11-26T18:42:22.666Z,35.73
2018-11-26T18:44:52.063Z,38.30
2018-11-26T18:47:30.094Z,33.23
2018-11-26T18:49:59.769Z,32.90
2018-11-26T18:52:29.397Z,35.73
2018-11-26T18:54:59.217Z,33.73
2018-11-26T18:57:30.937Z,38.27
2018-11-26T19:00:01.006Z,32.50
2018-11-26T19:02:32.357Z,38.87
2018-11-26T19:05:02.404Z,36.00
2018-11-26T19:07:41.155Z,38.37
2018-11-26T19:10:12.112Z,35.57
2018-11-26T19:12:41.850Z,35.97
2018-11-26T19:15:16.795Z,32.60
2018-11-26T19:17:47.371Z,34.53
2018-11-26T19:20:17.238Z,37.73
2018-11-26T19:22:46.405Z,40.27
2018-11-26T19:25:17.296Z,37.53
2018-11-26T19:27:46.469Z,41.17
2018-11-26T19:30:16.124Z,38.07
2018-11-26T19:32:50.243Z,38.30
2018-11-26T19:35:19.831Z,38.93
2018-11-26T19:37:50.843Z,38.67
2018-11-26T19:40:21.189Z,35.57
2018-11-26T19:42:55.270Z,39.90
2018-11-26T19:45:25.311Z,41.90
2018-11-26T19:47:56.764Z,39.03
2018-11-26T19:50:26.556Z,37.30
2018-11-26T19:52:59.828Z,43.23
2018-11-26T19:55:30.443Z,40.83
2018-11-26T19:58:03.446Z,39.67
2018-11-26T20:00:33.109Z,43.20
2018-11-26T20:03:13.583Z,39.83
2018-11-26T20:05:56.461Z,43.47
2018-11-26T20:08:27.205Z,41.83
2018-11-26T20:10:57.004Z,41.70
2018-11-26T20:13:27.284Z,39.47
2018-11-26T20:15:58.568Z,43.57
2018-11-26T20:18:28.605Z,45.97
2018-11-26T20:20:58.012Z,47.20
2018-11-26T20:23:28.161Z,39.73
2018-11-26T20:25:58.119Z,44.37
2018-11-26T20:28:27.876Z,40.67
2018-11-26T20:30:59.188Z,43.20
2018-11-26T20:33:32.455Z,43.87
2018-11-26T20:36:02.321Z,39.30
2018-11-26T20:38:33.394Z,46.37
2018-11-26T20:41:04.037Z,45.33
2018-11-26T20:43:34.128Z,45.47
2018-11-26T20:46:05.598Z,42.30
2018-11-26T20:48:35.028Z,44.90
2018-11-26T20:51:04.645Z,41.87
2018-11-26T20:53:34.562Z,46.00
2018-11-26T20:56:08.863Z,42.97
2018-11-26T20:58:38.027Z,44.47
2018-11-26T21:01:09.450Z,44.33
2018-11-26T21:03:39.047Z,46.13
2018-11-26T21:06:11.737Z,42.40
2018-11-26T21:08:40.407Z,49.03
2018-11-26T21:11:09.941Z,46.60
2018-11-26T21:13:42.082Z,49.87
2018-11-26T21:16:11.872Z,50.07
2018-11-26T21:18:43.267Z,42.93
2018-11-26T21:21:12.736Z,48.80
2018-11-26T21:23:45.494Z,44.70
2018-11-26T21:26:15.790Z,47.17
2018-11-26T21:28:49.715Z,43.87
2018-11-26T21:31:20.299Z,47.37
2018-11-26T21:33:56.648Z,41.93
2018-11-26T21:36:26.289Z,45.77
2018-11-26T21:39:06.534Z,50.60
2018-11-26T21:41:36.979Z,42.63
2018-11-26T21:44:06.980Z,44.43
2018-11-26T21:46:36.933Z,44.30
2018-11-26T21:49:08.384Z,46.40
2018-11-26T21:51:37.720Z,49.10
2018-11-26T21:54:08.436Z,46.13
2018-11-26T21:56:38.494Z,46.50
2018-11-26T21:59:08.689Z,48.13
2018-11-26T22:01:38.578Z,47.17
2018-11-26T22:04:08.036Z,45.90
2018-11-26T22:06:37.931Z,46.50
2018-11-26T22:09:12.362Z,48.60
2018-11-26T22:11:44.277Z,48.23
2018-11-26T22:14:13.417Z,49.60
2018-11-26T22:16:43.341Z,42.93
2018-11-26T22:19:17.042Z,41.87
2018-11-26T22:21:46.616Z,44.50
2018-11-26T22:24:20.432Z,40.43
2018-11-26T22:26:50.087Z,47.17
2018-11-26T22:29:22.751Z,46.73
2018-11-26T22:31:51.905Z,47.97
2018-11-26T22:34:24.035Z,44.77
2018-11-26T22:36:54.981Z,49.00
2018-11-26T22:39:25.740Z,44.03
2018-11-26T22:41:55.402Z,47.60
2018-11-26T22:44:28.824Z,46.87
2018-11-26T22:46:57.945Z,49.37
2018-11-26T22:49:35.736Z,45.10
2018-11-26T22:52:05.163Z,46.40
2018-11-26T22:54:34.759Z,43.83
2018-11-26T22:57:03.776Z,47.80
2018-11-26T22:59:36.490Z,49.33
2018-11-26T23:02:07.850Z,48.93
2018-11-26T23:04:38.052Z,48.77
2018-11-26T23:07:07.479Z,48.17
2018-11-26T23:09:41.357Z,47.77
2018-11-26T23:12:10.756Z,47.87
2018-11-26T23:14:43.790Z,50.53
2018-11-26T23:17:13.153Z,49.43
2018-11-26T23:19:47.268Z,50.47
2018-11-26T23:22:16.680Z,46.83
2018-11-26T23:24:47.516Z,44.00
2018-11-26T23:27:17.123Z,50.07
2018-11-26T23:29:51.316Z,47.60
2018-11-26T23:32:20.747Z,48.37
2018-11-26T23:34:57.841Z,47.60
2018-11-26T23:37:27.005Z,46.23
2018-11-26T23:39:57.292Z,50.60
2018-11-26T23:42:26.332Z,46.47
2018-11-26T23:45:03.690Z,47.93
2018-11-26T23:47:33.624Z,45.47
2018-11-26T23:50:02.718Z,51.73
2018-11-26T23:52:31.763Z,48.50
2018-11-26T23:55:24.397Z,46.57
2018-11-26T23:57:53.464Z,51.37
